x

Big Carlos Pass, Fl (bgcf1) Weather Station

6:54am - Wed 1st Oct 2014 All times are EDT. -4 hours from GMT.

  • Wind
    14mph, 15mph gusts
  • Air Temp 83°f
  • Sea Pressure 1012.7mb
  • Big Carlos Pass, Fl
  • Big Carlos Pass, Fl

More Historic Weather Station data

Upgrade to MSW Pro to gain access to the past 30 days of data for over 8000 Wavebouys and Weather Stations around the globe.

Join Pro

Comparision Forecast

View Surf forecast
   
Wed 10/01 6:54am 14 15 mph 1012.7mb 83f
6:48am 13 14 mph 1012.6mb 83f
5:54am 6 7 mph 1012.1mb 80f
5:48am 13 22 mph 1012mb 80f
4:54am 15 20 mph 1011.3mb 82f
4:48am 14 16 mph 1011.2mb 83f
1:54am 9 10 mph 1011.7mb 83f
1:48am 10 11 mph 1011.9mb 83f
12:54am 8 9 mph 1011.8mb 83f
12:48am 7 8 mph 1012mb 83f
Tue 09/30 11:54pm 5 6 mph 1012.3mb 83f
11:48pm 3 6 mph 1012.3mb 82f
10:54pm 7 11 mph 1012.3mb 83f
10:48pm 6 8 mph 1012.3mb 83f
9:54pm 3 5 mph 1011.9mb 83f
9:48pm 5 6 mph 1011.9mb 83f
8:54pm 5 7 mph 1011.6mb 83f
8:48pm 5 7 mph 1011.5mb 83f
7:54pm 7 10 mph 1011.1mb 83f
7:48pm 10 14 mph 1011.1mb 83f
5:54pm 11 20 mph 1010.6mb 80f
5:48pm 6 9 mph 1010.8mb 79f
4:54pm 11 14 mph 1010.3mb 85f
4:48pm 8 14 mph 1010.4mb 85f
3:54pm 6 8 mph 1010.6mb 84f
3:48pm 6 9 mph 1010.6mb 84f
2:54pm 14 17 mph 1010.9mb 85f
2:48pm 14 16 mph 1011mb 85f
1:54pm 14 16 mph 1011.4mb 85f
1:48pm 13 16 mph 1011.6mb 85f
12:54pm 13 14 mph 1012.1mb 85f
12:48pm 11 14 mph 1012.2mb 85f
11:54am 10 13 mph 1012.5mb 84f
11:48am 9 11 mph 1012.4mb 84f
10:54am 9 11 mph 1012.4mb 84f
10:48am 9 10 mph 1012.5mb 84f
9:54am 9 10 mph 1012.3mb 84f
9:48am 9 11 mph 1012.2mb 84f
8:54am 9 11 mph 1011.9mb 84f
8:48am 7 9 mph 1011.9mb 84f
7:54am 8 11 mph 1011.4mb 83f
7:48am 8 11 mph 1011.4mb 83f
6:54am 9 13 mph 1011.1mb 82f
6:48am 8 11 mph 1011mb 82f
5:54am 10 11 mph 1010.6mb 83f
5:48am 10 11 mph 1010.6mb 83f
4:54am 5
mph
1010.4mb 80f
4:48am 5 6 mph 1010.3mb 79f
3:54am 3 5 mph 1010.6mb 79f
3:48am 5 6 mph 1010.6mb 79f
2:54am 3 5 mph 1011mb 79f
2:48am 2 3 mph 1011mb 79f
1:54am 5 6 mph 1011.4mb 79f
1:48am 3 5 mph 1011.4mb 79f
12:54am 1 2 mph 1011.7mb 80f
12:48am 2 3 mph 1011.6mb 80f
Mon 09/29 11:54pm 1 2 mph 1012mb 79f
11:48pm 1 2 mph 1012.1mb 79f
10:54pm 6 9 mph 1012.4mb 78f
10:48pm 8 11 mph 1012.6mb 79f
9:54pm 1 2 mph 1012.2mb 82f
9:48pm  -  1 mph 1012.1mb 82f
8:54pm 3 5 mph 1011.8mb 82f
8:48pm 5 6 mph 1011.9mb 81f
7:54pm 8 10 mph 1011.3mb 84f
7:48pm 9 11 mph 1011.3mb 84f
6:54pm 10 13 mph 1011.1mb 84f
6:48pm 11 14 mph 1011.1mb 84f
5:54pm 11 15 mph 1011.1mb 84f
5:48pm 11 14 mph 1011.1mb 84f
4:54pm 13 15 mph 1011mb 84f
4:48pm 11 13 mph 1010.9mb 84f
3:54pm 13 15 mph 1010.9mb 84f
3:48pm 13 14 mph 1011mb 84f
2:54pm 14 16 mph 1011.3mb 84f
2:48pm 15 16 mph 1011.3mb 84f
1:54pm 14 15 mph 1012.3mb 85f
1:48pm 13 15 mph 1012.4mb 85f
12:54pm 9 11 mph 1012.5mb 84f
12:48pm 9 11 mph 1012.6mb 84f
11:54am 8 10 mph 1012.9mb 84f
11:48am 8 10 mph 1013mb 85f
10:54am 6 8 mph 1013.4mb 84f
10:48am 6 9 mph 1013.4mb 84f
9:54am 7 9 mph 1013.4mb 82f
9:48am 7 9 mph 1013.4mb 82f
8:54am 6 7 mph 1013.6mb 80f
8:48am 3 6 mph 1013.6mb 80f
7:54am 6 7 mph 1013.5mb 78f
7:48am 6 7 mph 1013.4mb 78f
6:54am 6 8 mph 1013.1mb 77f
6:48am 6 7 mph 1013mb 77f
5:54am 5 6 mph 1012.9mb 77f
5:48am 6 8 mph 1012.8mb 77f
4:54am 3 5 mph 1012.9mb 77f
4:48am 5 7 mph 1012.9mb 77f
3:54am 6
mph
1013.2mb 77f
3:48am 6 7 mph 1013.2mb 77f
2:54am 6 9 mph 1013.3mb 77f
2:48am 8 10 mph 1013.4mb 77f
1:54am 7 9 mph 1013.9mb 77f
1:48am 7 9 mph 1013.9mb 77f
12:54am 6 8 mph 1014.6mb 77f
12:48am 6 8 mph 1014.7mb 77f
Sun 09/28 11:54pm 6 9 mph 1015mb 78f
11:48pm 7 9 mph 1014.9mb 78f
10:54pm 5 7 mph 1014.9mb 78f
10:48pm 5 6 mph 1014.9mb 78f
9:54pm 5 6 mph 1014.8mb 78f
9:48pm 5 7 mph 1014.8mb 78f
8:54pm 6
mph
1014.8mb 79f
8:48pm 6 7 mph 1014.7mb 79f
7:54pm 8
mph
1014.4mb 78f
7:48pm 7 8 mph 1014.3mb 78f
6:54pm 7 9 mph 1013.8mb 77f
6:48pm 7 9 mph 1013.9mb 78f
5:54pm 10 15 mph 1013.6mb 78f
5:48pm 14 17 mph 1013.5mb 78f
4:54pm 7 10 mph 1013.6mb 82f
4:48pm 7 11 mph 1013.4mb 83f
3:54pm 2 6 mph 1013.5mb 83f
3:48pm 5 8 mph 1013.6mb 82f
2:54pm 13
mph
1013.3mb 86f
2:48pm 11 13 mph 1013.4mb 86f
1:54pm 2 5 mph 1014.5mb 88f
1:48pm 6 7 mph 1014.5mb 88f
12:54pm 7 9 mph 1015.1mb 88f
12:48pm 8 11 mph 1015.2mb 87f
11:54am 7 10 mph 1015.9mb 86f
11:48am 8 11 mph 1016mb 86f